ADDS METAR Data INFO
IDs: Format: Raw Decoded Include TAF

Data at: 1909 UTC 23 Apr 2018

KORE 231852Z AUTO VRB04KT 10SM CLR 19/M11 A3041 RMK AO2 SLP300 T01891111
KORE 231752Z AUTO 00000KT 10SM CLR 18/M11 A3043 RMK AO2 RAB1656E05 SLP310 P0000 60000 T01781111 10178 20017 58020
KORE 231652Z AUTO 10SM CLR 16/M11 A3045 RMK AO2 SLP317 T01561106
KORE 231552Z AUTO 21004KT 10SM CLR 14/M10 A3048 RMK AO2 SLP324 T01441100
KORE 231452Z AUTO 00000KT 10SM CLR 13/M11 A3049 RMK AO2 SLP330 T01281106 58006
KORE 231352Z AUTO 01003KT 10SM CLR 12/M07 A3051 RMK AO2 SLP336 T01171072
KORE 231252Z AUTO 00000KT 10SM CLR 06/M04 A3052 RMK AO2 SLP339 T00611044
KORE 231152Z AUTO 00000KT 10SM CLR 02/M04 A3051 RMK AO2 SLP338 I6000 T00171039 10017 21044 53016
KORE 231052Z AUTO 00000KT 10SM CLR M02/M03 A3050 RMK AO2 SLP332 T10221033
KORE 230952Z AUTO 00000KT 10SM CLR M04/M06 A3048 RMK AO2 SLP325 I1000 T10441056
KORE 230852Z AUTO 00000KT 10SM CLR M04/M05 A3046 RMK AO2 SLP321 T10391050 53012
KORE 230752Z AUTO 00000KT 10SM CLR M03/M05 A3045 RMK AO2 SLP316 T10281050
KORE 230652Z AUTO 00000KT 10SM CLR M03/M04 A3044 RMK AO2 SLP311 T10281044
KORE 230552Z AUTO 00000KT 10SM CLR M02/M03 A3043 RMK AO2 SLP308 T10171033 10083 21017 51010
KORE 230452Z AUTO 00000KT 10SM CLR M02/M04 A3043 RMK AO2 SLP309 T10171039 401611044
KORE 230352Z AUTO 00000KT 10SM CLR 00/M04 A3041 RMK AO2 SLP302 T00001039
KORE 230252Z AUTO 00000KT 10SM CLR 01/M04 A3040 RMK AO2 SLP298 T00111044 51020
KORE 230152Z AUTO 00000KT 10SM CLR 03/M05 A3038 RMK AO2 SLP293 T00331050
KORE 230052Z AUTO 00000KT 10SM CLR 06/M04 A3036 RMK AO2 SLP287 T00561044
KORE 222352Z AUTO 00000KT 10SM CLR 09/M07 A3034 RMK AO2 SLP279 T00891067 10161 20089 53009
KORE 222252Z AUTO 01007KT 10SM CLR 14/M11 A3032 RMK AO2 SLP273 T01391111
KORE 222152Z AUTO 30009KT 10SM CLR 15/M12 A3031 RMK AO2 SLP271 T01501122
KORE 222052Z AUTO 10SM CLR 15/M12 A3031 RMK AO2 SLP269 T01501122 55009
KORE 221952Z AUTO 32012KT 10SM CLR 16/M11 A3031 RMK AO2 SLP269 T01561106
KORE 221852Z AUTO 33007KT 300V010 10SM CLR 16/M12 A3032 RMK AO2 SLP270 T01561117
KORE 221752Z AUTO 32010G19KT 10SM CLR 15/M11 A3034 RMK AO2 SLP278 T01501111 10150 20006 58009
KORE 221652Z AUTO 36014G19KT 320V020 10SM CLR 14/M09 A3035 RMK AO2 SLP282 T01391094
KORE 221552Z AUTO 32014G18KT 10SM CLR 13/M11 A3036 RMK AO2 SLP285 T01281111
KORE 221452Z AUTO 10SM CLR 12/M08 A3037 RMK AO2 SLP287 T01171083 58004
KORE 221352Z AUTO 34012KT 10SM CLR 10/M08 A3038 RMK AO2 SLP292 T01001078
KORE 221252Z AUTO 00000KT 10SM CLR 06/M04 A3038 RMK AO2 SLP293 T00561039
KORE 221152Z AUTO 00000KT 10SM CLR 01/M02 A3038 RMK AO2 SLP292 I6000 T00061022 10006 21044 51009
KORE 221052Z AUTO 00000KT 10SM CLR M03/M03 A3037 RMK AO2 SLP290 T10281033
KORE 220952Z AUTO 00000KT 10SM CLR M04/M06 A3036 RMK AO2 SLP286 I1000 T10441056
KORE 220852Z AUTO 00000KT 10SM CLR M04/M06 A3035 RMK AO2 SLP282 T10441056 50002
KORE 220752Z AUTO 00000KT 10SM CLR M03/M05 A3035 RMK AO2 SLP282 T10331050